sensor_id;sensor_type;location;lat;lon;timestamp;P1;durP1;ratioP1;P2;durP2;ratioP2
22144;SDS011;11238;48.730;11.566;2023-03-03T00:01:51;56.20;;;31.00;;
22144;SDS011;11238;48.730;11.566;2023-03-03T00:04:38;56.58;;;30.92;;
22144;SDS011;11238;48.730;11.566;2023-03-03T00:07:04;59.13;;;30.65;;
22144;SDS011;11238;48.730;11.566;2023-03-03T00:09:30;56.80;;;30.05;;
22144;SDS011;11238;48.730;11.566;2023-03-03T00:11:56;53.50;;;29.42;;
22144;SDS011;11238;48.730;11.566;2023-03-03T00:14:28;56.78;;;30.40;;
22144;SDS011;11238;48.730;11.566;2023-03-03T00:16:56;55.03;;;29.23;;
22144;SDS011;11238;48.730;11.566;2023-03-03T00:19:24;58.28;;;30.95;;
22144;SDS011;11238;48.730;11.566;2023-03-03T00:21:51;56.45;;;29.95;;
22144;SDS011;11238;48.730;11.566;2023-03-03T00:26:50;56.88;;;29.30;;
22144;SDS011;11238;48.730;11.566;2023-03-03T00:29:27;55.45;;;30.35;;
22144;SDS011;11238;48.730;11.566;2023-03-03T00:34:42;56.15;;;28.73;;
22144;SDS011;11238;48.730;11.566;2023-03-03T00:37:19;54.42;;;29.23;;
22144;SDS011;11238;48.730;11.566;2023-03-03T00:39:56;51.08;;;29.38;;
22144;SDS011;11238;48.730;11.566;2023-03-03T00:42:34;58.60;;;29.17;;
22144;SDS011;11238;48.730;11.566;2023-03-03T00:45:00;61.22;;;31.98;;
22144;SDS011;11238;48.730;11.566;2023-03-03T00:47:30;59.35;;;30.42;;
22144;SDS011;11238;48.730;11.566;2023-03-03T00:52:35;57.20;;;30.52;;
22144;SDS011;11238;48.730;11.566;2023-03-03T00:55:09;57.67;;;29.80;;
22144;SDS011;11238;48.730;11.566;2023-03-03T00:57:35;59.88;;;30.38;;
22144;SDS011;11238;48.730;11.566;2023-03-03T01:00:06;56.60;;;29.80;;
22144;SDS011;11238;48.730;11.566;2023-03-03T01:02:33;56.65;;;29.48;;
22144;SDS011;11238;48.730;11.566;2023-03-03T01:04:58;62.17;;;30.40;;
22144;SDS011;11238;48.730;11.566;2023-03-03T01:07:24;65.60;;;30.45;;
22144;SDS011;11238;48.730;11.566;2023-03-03T01:09:50;59.30;;;31.02;;
22144;SDS011;11238;48.730;11.566;2023-03-03T01:12:16;61.55;;;30.98;;
22144;SDS011;11238;48.730;11.566;2023-03-03T01:14:42;56.08;;;29.83;;
22144;SDS011;11238;48.730;11.566;2023-03-03T01:17:09;57.60;;;29.92;;
22144;SDS011;11238;48.730;11.566;2023-03-03T01:19:36;62.70;;;30.73;;
22144;SDS011;11238;48.730;11.566;2023-03-03T01:22:02;59.50;;;29.83;;
22144;SDS011;11238;48.730;11.566;2023-03-03T01:24:28;57.00;;;30.33;;
22144;SDS011;11238;48.730;11.566;2023-03-03T01:26:53;60.10;;;31.27;;
22144;SDS011;11238;48.730;11.566;2023-03-03T01:29:21;60.25;;;30.45;;
22144;SDS011;11238;48.730;11.566;2023-03-03T01:31:47;63.08;;;31.58;;
22144;SDS011;11238;48.730;11.566;2023-03-03T01:34:13;59.03;;;30.08;;
22144;SDS011;11238;48.730;11.566;2023-03-03T01:36:39;62.95;;;30.42;;
22144;SDS011;11238;48.730;11.566;2023-03-03T01:39:05;61.13;;;31.25;;
22144;SDS011;11238;48.730;11.566;2023-03-03T01:41:31;59.85;;;30.10;;
22144;SDS011;11238;48.730;11.566;2023-03-03T01:43:58;64.38;;;30.52;;
22144;SDS011;11238;48.730;11.566;2023-03-03T01:49:32;66.25;;;30.90;;
22144;SDS011;11238;48.730;11.566;2023-03-03T01:52:03;58.90;;;29.48;;
22144;SDS011;11238;48.730;11.566;2023-03-03T01:54:41;62.95;;;30.48;;
22144;SDS011;11238;48.730;11.566;2023-03-03T01:59:43;63.25;;;30.13;;
22144;SDS011;11238;48.730;11.566;2023-03-03T02:02:13;62.33;;;31.45;;
22144;SDS011;11238;48.730;11.566;2023-03-03T02:04:40;64.07;;;31.83;;
22144;SDS011;11238;48.730;11.566;2023-03-03T02:07:06;60.30;;;30.23;;
22144;SDS011;11238;48.730;11.566;2023-03-03T02:12:35;63.95;;;30.98;;
22144;SDS011;11238;48.730;11.566;2023-03-03T02:15:14;64.28;;;30.98;;
22144;SDS011;11238;48.730;11.566;2023-03-03T02:17:41;63.30;;;31.05;;
22144;SDS011;11238;48.730;11.566;2023-03-03T02:20:27;62.45;;;30.52;;
22144;SDS011;11238;48.730;11.566;2023-03-03T02:23:02;69.97;;;32.55;;
22144;SDS011;11238;48.730;11.566;2023-03-03T02:25:39;70.22;;;32.45;;
22144;SDS011;11238;48.730;11.566;2023-03-03T02:28:16;70.45;;;32.90;;
22144;SDS011;11238;48.730;11.566;2023-03-03T02:30:41;68.78;;;32.40;;
22144;SDS011;11238;48.730;11.566;2023-03-03T02:33:08;68.57;;;31.75;;
22144;SDS011;11238;48.730;11.566;2023-03-03T02:35:36;65.00;;;31.40;;
22144;SDS011;11238;48.730;11.566;2023-03-03T02:38:26;62.80;;;31.08;;
22144;SDS011;11238;48.730;11.566;2023-03-03T02:40:55;64.22;;;31.13;;
22144;SDS011;11238;48.730;11.566;2023-03-03T02:46:34;67.00;;;32.15;;
22144;SDS011;11238;48.730;11.566;2023-03-03T02:49:04;65.13;;;31.63;;
22144;SDS011;11238;48.730;11.566;2023-03-03T02:51:31;69.47;;;32.33;;
22144;SDS011;11238;48.730;11.566;2023-03-03T02:53:57;67.88;;;32.70;;
22144;SDS011;11238;48.730;11.566;2023-03-03T02:56:26;68.80;;;33.15;;
22144;SDS011;11238;48.730;11.566;2023-03-03T02:58:52;70.55;;;33.70;;
22144;SDS011;11238;48.730;11.566;2023-03-03T03:01:19;68.30;;;32.08;;
22144;SDS011;11238;48.730;11.566;2023-03-03T03:03:45;70.32;;;32.80;;
22144;SDS011;11238;48.730;11.566;2023-03-03T03:06:15;67.68;;;32.80;;
22144;SDS011;11238;48.730;11.566;2023-03-03T03:08:41;68.30;;;32.85;;
22144;SDS011;11238;48.730;11.566;2023-03-03T03:11:07;60.70;;;31.30;;
22144;SDS011;11238;48.730;11.566;2023-03-03T03:13:33;68.15;;;32.85;;
22144;SDS011;11238;48.730;11.566;2023-03-03T03:16:00;68.88;;;33.25;;
22144;SDS011;11238;48.730;11.566;2023-03-03T03:18:26;67.90;;;31.98;;
22144;SDS011;11238;48.730;11.566;2023-03-03T03:20:55;69.65;;;31.77;;
22144;SDS011;11238;48.730;11.566;2023-03-03T03:23:21;65.55;;;32.58;;
22144;SDS011;11238;48.730;11.566;2023-03-03T03:25:47;70.75;;;33.60;;
22144;SDS011;11238;48.730;11.566;2023-03-03T03:28:35;68.40;;;35.00;;
22144;SDS011;11238;48.730;11.566;2023-03-03T03:31:02;78.68;;;33.58;;
22144;SDS011;11238;48.730;11.566;2023-03-03T03:33:31;71.65;;;33.70;;
22144;SDS011;11238;48.730;11.566;2023-03-03T03:35:59;75.50;;;35.13;;
22144;SDS011;11238;48.730;11.566;2023-03-03T03:38:26;77.40;;;34.92;;
22144;SDS011;11238;48.730;11.566;2023-03-03T03:40:53;74.78;;;34.67;;
22144;SDS011;11238;48.730;11.566;2023-03-03T03:43:20;71.57;;;34.63;;
22144;SDS011;11238;48.730;11.566;2023-03-03T03:45:47;69.22;;;33.28;;
22144;SDS011;11238;48.730;11.566;2023-03-03T03:48:14;78.75;;;35.67;;
22144;SDS011;11238;48.730;11.566;2023-03-03T03:50:42;77.40;;;34.72;;
22144;SDS011;11238;48.730;11.566;2023-03-03T03:53:08;70.65;;;34.60;;
22144;SDS011;11238;48.730;11.566;2023-03-03T03:55:34;76.25;;;36.00;;
22144;SDS011;11238;48.730;11.566;2023-03-03T03:58:01;70.60;;;34.92;;
22144;SDS011;11238;48.730;11.566;2023-03-03T04:00:27;76.95;;;35.05;;
22144;SDS011;11238;48.730;11.566;2023-03-03T04:02:57;71.10;;;34.33;;
22144;SDS011;11238;48.730;11.566;2023-03-03T04:05:42;74.18;;;35.17;;
22144;SDS011;11238;48.730;11.566;2023-03-03T04:08:09;74.85;;;34.88;;
22144;SDS011;11238;48.730;11.566;2023-03-03T04:10:36;77.97;;;34.92;;
22144;SDS011;11238;48.730;11.566;2023-03-03T04:13:04;73.63;;;34.70;;
22144;SDS011;11238;48.730;11.566;2023-03-03T04:15:31;71.47;;;35.03;;
22144;SDS011;11238;48.730;11.566;2023-03-03T04:17:58;77.05;;;34.15;;
22144;SDS011;11238;48.730;11.566;2023-03-03T04:20:24;81.45;;;35.22;;
22144;SDS011;11238;48.730;11.566;2023-03-03T04:22:52;79.38;;;34.83;;
22144;SDS011;11238;48.730;11.566;2023-03-03T04:25:18;73.93;;;34.22;;
22144;SDS011;11238;48.730;11.566;2023-03-03T04:27:45;76.47;;;35.35;;
22144;SDS011;11238;48.730;11.566;2023-03-03T04:30:13;76.53;;;36.30;;
22144;SDS011;11238;48.730;11.566;2023-03-03T04:32:42;71.82;;;35.17;;
22144;SDS011;11238;48.730;11.566;2023-03-03T04:35:10;74.35;;;36.00;;
22144;SDS011;11238;48.730;11.566;2023-03-03T04:37:39;72.38;;;35.58;;
22144;SDS011;11238;48.730;11.566;2023-03-03T04:40:07;78.65;;;35.50;;
22144;SDS011;11238;48.730;11.566;2023-03-03T04:42:34;75.82;;;35.17;;
22144;SDS011;11238;48.730;11.566;2023-03-03T04:45:02;80.28;;;36.83;;
22144;SDS011;11238;48.730;11.566;2023-03-03T04:47:30;74.55;;;34.83;;
22144;SDS011;11238;48.730;11.566;2023-03-03T04:49:57;76.10;;;35.42;;
22144;SDS011;11238;48.730;11.566;2023-03-03T04:52:23;74.32;;;35.05;;
22144;SDS011;11238;48.730;11.566;2023-03-03T04:54:49;75.15;;;34.47;;
22144;SDS011;11238;48.730;11.566;2023-03-03T04:57:15;77.70;;;34.70;;
22144;SDS011;11238;48.730;11.566;2023-03-03T04:59:42;77.47;;;34.30;;
22144;SDS011;11238;48.730;11.566;2023-03-03T05:02:08;75.43;;;34.40;;
22144;SDS011;11238;48.730;11.566;2023-03-03T05:04:33;73.75;;;34.17;;
22144;SDS011;11238;48.730;11.566;2023-03-03T05:06:59;74.60;;;34.78;;
22144;SDS011;11238;48.730;11.566;2023-03-03T05:09:25;76.63;;;35.65;;
22144;SDS011;11238;48.730;11.566;2023-03-03T05:11:51;76.13;;;36.08;;
22144;SDS011;11238;48.730;11.566;2023-03-03T05:14:17;73.07;;;34.72;;
22144;SDS011;11238;48.730;11.566;2023-03-03T05:16:44;77.22;;;36.55;;
22144;SDS011;11238;48.730;11.566;2023-03-03T05:19:09;74.80;;;34.80;;
22144;SDS011;11238;48.730;11.566;2023-03-03T05:21:36;74.05;;;35.25;;
22144;SDS011;11238;48.730;11.566;2023-03-03T05:24:10;73.22;;;35.33;;
22144;SDS011;11238;48.730;11.566;2023-03-03T05:26:37;69.75;;;33.38;;
22144;SDS011;11238;48.730;11.566;2023-03-03T05:29:04;70.38;;;34.28;;
22144;SDS011;11238;48.730;11.566;2023-03-03T05:31:30;74.25;;;35.08;;
22144;SDS011;11238;48.730;11.566;2023-03-03T05:33:56;73.75;;;34.95;;
22144;SDS011;11238;48.730;11.566;2023-03-03T05:36:22;70.60;;;34.80;;
22144;SDS011;11238;48.730;11.566;2023-03-03T05:38:49;75.80;;;35.53;;
22144;SDS011;11238;48.730;11.566;2023-03-03T05:41:15;73.82;;;36.22;;
22144;SDS011;11238;48.730;11.566;2023-03-03T05:44:03;74.53;;;34.42;;
22144;SDS011;11238;48.730;11.566;2023-03-03T05:46:30;81.65;;;36.33;;
22144;SDS011;11238;48.730;11.566;2023-03-03T05:48:56;78.53;;;37.47;;
22144;SDS011;11238;48.730;11.566;2023-03-03T05:51:22;81.38;;;36.88;;
22144;SDS011;11238;48.730;11.566;2023-03-03T05:53:48;76.10;;;35.80;;
22144;SDS011;11238;48.730;11.566;2023-03-03T05:56:14;81.93;;;37.70;;
22144;SDS011;11238;48.730;11.566;2023-03-03T05:58:40;82.18;;;38.08;;
22144;SDS011;11238;48.730;11.566;2023-03-03T06:01:06;75.13;;;34.58;;
22144;SDS011;11238;48.730;11.566;2023-03-03T06:03:32;76.93;;;36.65;;
22144;SDS011;11238;48.730;11.566;2023-03-03T06:05:58;75.53;;;36.10;;
22144;SDS011;11238;48.730;11.566;2023-03-03T06:08:45;77.28;;;34.42;;
22144;SDS011;11238;48.730;11.566;2023-03-03T06:11:11;79.80;;;35.47;;
22144;SDS011;11238;48.730;11.566;2023-03-03T06:13:37;77.43;;;35.72;;
22144;SDS011;11238;48.730;11.566;2023-03-03T06:16:06;73.90;;;34.97;;
22144;SDS011;11238;48.730;11.566;2023-03-03T06:18:32;81.30;;;37.80;;
22144;SDS011;11238;48.730;11.566;2023-03-03T06:20:58;74.57;;;35.47;;
22144;SDS011;11238;48.730;11.566;2023-03-03T06:23:24;73.60;;;35.28;;
22144;SDS011;11238;48.730;11.566;2023-03-03T06:25:49;73.10;;;34.72;;
22144;SDS011;11238;48.730;11.566;2023-03-03T06:28:15;73.38;;;36.90;;
22144;SDS011;11238;48.730;11.566;2023-03-03T06:30:41;76.47;;;35.30;;
22144;SDS011;11238;48.730;11.566;2023-03-03T06:33:25;75.07;;;34.28;;
22144;SDS011;11238;48.730;11.566;2023-03-03T06:36:13;77.50;;;35.75;;
22144;SDS011;11238;48.730;11.566;2023-03-03T06:38:39;76.25;;;36.17;;
22144;SDS011;11238;48.730;11.566;2023-03-03T06:41:07;74.32;;;34.50;;
22144;SDS011;11238;48.730;11.566;2023-03-03T06:43:54;80.60;;;37.08;;
22144;SDS011;11238;48.730;11.566;2023-03-03T06:46:20;78.70;;;36.28;;
22144;SDS011;11238;48.730;11.566;2023-03-03T06:48:46;76.10;;;36.45;;
22144;SDS011;11238;48.730;11.566;2023-03-03T06:51:19;81.95;;;36.45;;
22144;SDS011;11238;48.730;11.566;2023-03-03T06:53:48;74.20;;;35.85;;
22144;SDS011;11238;48.730;11.566;2023-03-03T06:56:17;79.13;;;38.00;;
22144;SDS011;11238;48.730;11.566;2023-03-03T06:58:42;77.30;;;35.97;;
22144;SDS011;11238;48.730;11.566;2023-03-03T07:01:12;76.60;;;36.17;;
22144;SDS011;11238;48.730;11.566;2023-03-03T07:03:41;76.55;;;36.47;;
22144;SDS011;11238;48.730;11.566;2023-03-03T07:06:13;78.63;;;36.83;;
22144;SDS011;11238;48.730;11.566;2023-03-03T07:08:48;78.72;;;36.88;;
22144;SDS011;11238;48.730;11.566;2023-03-03T07:11:16;76.40;;;37.05;;
22144;SDS011;11238;48.730;11.566;2023-03-03T07:13:51;75.70;;;35.97;;
22144;SDS011;11238;48.730;11.566;2023-03-03T07:16:19;80.30;;;38.00;;
22144;SDS011;11238;48.730;11.566;2023-03-03T07:18:51;82.55;;;37.47;;
22144;SDS011;11238;48.730;11.566;2023-03-03T07:21:22;82.63;;;38.58;;
22144;SDS011;11238;48.730;11.566;2023-03-03T07:23:55;76.95;;;37.28;;
22144;SDS011;11238;48.730;11.566;2023-03-03T07:26:25;75.45;;;37.85;;
22144;SDS011;11238;48.730;11.566;2023-03-03T07:28:58;79.28;;;37.63;;
22144;SDS011;11238;48.730;11.566;2023-03-03T07:31:28;79.70;;;38.63;;
22144;SDS011;11238;48.730;11.566;2023-03-03T07:33:59;78.55;;;37.53;;
22144;SDS011;11238;48.730;11.566;2023-03-03T07:36:27;74.82;;;35.60;;
22144;SDS011;11238;48.730;11.566;2023-03-03T07:39:02;81.05;;;37.13;;
22144;SDS011;11238;48.730;11.566;2023-03-03T07:41:40;74.82;;;35.47;;
22144;SDS011;11238;48.730;11.566;2023-03-03T07:46:46;71.72;;;35.97;;
22144;SDS011;11238;48.730;11.566;2023-03-03T07:49:20;70.85;;;34.95;;
22144;SDS011;11238;48.730;11.566;2023-03-03T07:54:51;64.28;;;33.35;;
22144;SDS011;11238;48.730;11.566;2023-03-03T07:57:26;64.70;;;32.58;;
22144;SDS011;11238;48.730;11.566;2023-03-03T08:00:00;67.45;;;33.78;;
22144;SDS011;11238;48.730;11.566;2023-03-03T08:03:03;64.28;;;34.05;;
22144;SDS011;11238;48.730;11.566;2023-03-03T08:05:39;58.63;;;31.85;;
22144;SDS011;11238;48.730;11.566;2023-03-03T08:13:16;56.80;;;29.00;;
22144;SDS011;11238;48.730;11.566;2023-03-03T08:15:52;55.65;;;28.92;;
22144;SDS011;11238;48.730;11.566;2023-03-03T08:18:27;55.17;;;27.90;;
22144;SDS011;11238;48.730;11.566;2023-03-03T08:21:05;48.08;;;26.38;;
22144;SDS011;11238;48.730;11.566;2023-03-03T08:23:40;51.38;;;27.73;;
22144;SDS011;11238;48.730;11.566;2023-03-03T08:26:06;48.75;;;28.15;;
22144;SDS011;11238;48.730;11.566;2023-03-03T08:28:35;55.80;;;28.95;;
22144;SDS011;11238;48.730;11.566;2023-03-03T08:31:01;52.10;;;27.88;;
22144;SDS011;11238;48.730;11.566;2023-03-03T08:33:28;50.30;;;27.83;;
22144;SDS011;11238;48.730;11.566;2023-03-03T08:35:53;48.25;;;26.92;;
22144;SDS011;11238;48.730;11.566;2023-03-03T08:38:20;48.95;;;26.65;;
22144;SDS011;11238;48.730;11.566;2023-03-03T08:41:08;44.03;;;25.88;;
22144;SDS011;11238;48.730;11.566;2023-03-03T08:43:56;44.25;;;25.42;;
22144;SDS011;11238;48.730;11.566;2023-03-03T08:46:22;49.60;;;27.27;;
22144;SDS011;11238;48.730;11.566;2023-03-03T08:48:48;47.55;;;26.48;;
22144;SDS011;11238;48.730;11.566;2023-03-03T08:51:16;46.70;;;26.65;;
22144;SDS011;11238;48.730;11.566;2023-03-03T08:53:41;46.78;;;27.05;;
22144;SDS011;11238;48.730;11.566;2023-03-03T08:56:07;51.08;;;26.85;;
22144;SDS011;11238;48.730;11.566;2023-03-03T08:58:36;48.63;;;27.13;;
22144;SDS011;11238;48.730;11.566;2023-03-03T09:01:04;45.40;;;25.80;;
22144;SDS011;11238;48.730;11.566;2023-03-03T09:03:30;47.85;;;25.67;;
22144;SDS011;11238;48.730;11.566;2023-03-03T09:05:56;49.22;;;26.83;;
22144;SDS011;11238;48.730;11.566;2023-03-03T09:08:22;53.50;;;26.92;;
22144;SDS011;11238;48.730;11.566;2023-03-03T09:10:49;50.55;;;27.38;;
22144;SDS011;11238;48.730;11.566;2023-03-03T09:13:15;45.47;;;25.90;;
22144;SDS011;11238;48.730;11.566;2023-03-03T09:15:43;46.38;;;25.70;;
22144;SDS011;11238;48.730;11.566;2023-03-03T09:18:15;47.38;;;26.73;;
22144;SDS011;11238;48.730;11.566;2023-03-03T09:20:55;49.42;;;26.67;;
22144;SDS011;11238;48.730;11.566;2023-03-03T09:23:34;48.50;;;26.98;;
22144;SDS011;11238;48.730;11.566;2023-03-03T09:26:24;50.80;;;27.65;;
22144;SDS011;11238;48.730;11.566;2023-03-03T09:31:53;45.63;;;26.27;;
22144;SDS011;11238;48.730;11.566;2023-03-03T09:34:36;44.20;;;25.33;;
22144;SDS011;11238;48.730;11.566;2023-03-03T09:37:17;44.88;;;25.55;;
22144;SDS011;11238;48.730;11.566;2023-03-03T09:39:52;42.55;;;25.25;;
22144;SDS011;11238;48.730;11.566;2023-03-03T09:42:23;44.97;;;25.80;;
22144;SDS011;11238;48.730;11.566;2023-03-03T09:45:08;44.50;;;26.05;;
22144;SDS011;11238;48.730;11.566;2023-03-03T09:50:54;47.17;;;24.65;;
22144;SDS011;11238;48.730;11.566;2023-03-03T09:53:34;38.08;;;22.77;;
22144;SDS011;11238;48.730;11.566;2023-03-03T09:58:44;44.40;;;24.85;;
22144;SDS011;11238;48.730;11.566;2023-03-03T10:04:23;39.67;;;23.13;;
22144;SDS011;11238;48.730;11.566;2023-03-03T10:07:15;42.15;;;24.30;;
22144;SDS011;11238;48.730;11.566;2023-03-03T10:13:03;42.65;;;23.80;;
22144;SDS011;11238;48.730;11.566;2023-03-03T10:18:28;42.35;;;21.70;;
22144;SDS011;11238;48.730;11.566;2023-03-03T10:21:07;36.45;;;22.80;;
22144;SDS011;11238;48.730;11.566;2023-03-03T10:26:24;40.13;;;23.88;;
22144;SDS011;11238;48.730;11.566;2023-03-03T10:29:18;34.78;;;21.67;;
22144;SDS011;11238;48.730;11.566;2023-03-03T10:37:27;36.90;;;23.55;;
22144;SDS011;11238;48.730;11.566;2023-03-03T10:40:02;41.90;;;23.38;;
22144;SDS011;11238;48.730;11.566;2023-03-03T10:45:32;41.40;;;24.13;;
22144;SDS011;11238;48.730;11.566;2023-03-03T10:54:17;35.17;;;21.23;;
22144;SDS011;11238;48.730;11.566;2023-03-03T11:00:14;39.28;;;21.88;;
22144;SDS011;11238;48.730;11.566;2023-03-03T11:08:00;37.65;;;23.05;;
22144;SDS011;11238;48.730;11.566;2023-03-03T11:22:07;34.65;;;22.60;;
22144;SDS011;11238;48.730;11.566;2023-03-03T11:30:42;36.22;;;22.20;;
22144;SDS011;11238;48.730;11.566;2023-03-03T11:33:22;33.90;;;22.10;;
22144;SDS011;11238;48.730;11.566;2023-03-03T11:35:56;37.40;;;23.02;;
22144;SDS011;11238;48.730;11.566;2023-03-03T11:49:51;35.15;;;23.52;;
22144;SDS011;11238;48.730;11.566;2023-03-03T11:52:42;35.40;;;22.35;;
22144;SDS011;11238;48.730;11.566;2023-03-03T11:55:26;36.33;;;22.15;;
22144;SDS011;11238;48.730;11.566;2023-03-03T11:58:14;32.55;;;21.25;;
22144;SDS011;11238;48.730;11.566;2023-03-03T12:00:50;35.42;;;23.00;;
22144;SDS011;11238;48.730;11.566;2023-03-03T12:03:43;33.85;;;21.88;;
22144;SDS011;11238;48.730;11.566;2023-03-03T12:06:24;34.85;;;23.02;;
22144;SDS011;11238;48.730;11.566;2023-03-03T12:12:23;37.20;;;23.92;;
22144;SDS011;11238;48.730;11.566;2023-03-03T12:14:53;36.38;;;23.55;;
22144;SDS011;11238;48.730;11.566;2023-03-03T12:20:33;35.60;;;22.77;;
22144;SDS011;11238;48.730;11.566;2023-03-03T12:26:51;30.27;;;19.95;;
22144;SDS011;11238;48.730;11.566;2023-03-03T12:35:10;33.58;;;20.20;;
22144;SDS011;11238;48.730;11.566;2023-03-03T12:40:50;36.60;;;22.77;;
22144;SDS011;11238;48.730;11.566;2023-03-03T12:43:26;34.78;;;20.70;;
22144;SDS011;11238;48.730;11.566;2023-03-03T12:46:04;32.03;;;20.95;;
22144;SDS011;11238;48.730;11.566;2023-03-03T12:51:14;32.97;;;21.20;;
22144;SDS011;11238;48.730;11.566;2023-03-03T12:59:48;36.57;;;20.60;;
22144;SDS011;11238;48.730;11.566;2023-03-03T13:02:41;32.63;;;21.33;;
22144;SDS011;11238;48.730;11.566;2023-03-03T13:05:23;32.60;;;20.52;;
22144;SDS011;11238;48.730;11.566;2023-03-03T13:10:44;33.67;;;20.67;;
22144;SDS011;11238;48.730;11.566;2023-03-03T13:13:19;33.83;;;21.77;;
22144;SDS011;11238;48.730;11.566;2023-03-03T13:18:52;31.33;;;19.52;;
22144;SDS011;11238;48.730;11.566;2023-03-03T13:24:23;28.25;;;18.90;;
22144;SDS011;11238;48.730;11.566;2023-03-03T13:27:18;30.10;;;18.27;;
22144;SDS011;11238;48.730;11.566;2023-03-03T13:38:11;27.25;;;18.50;;
22144;SDS011;11238;48.730;11.566;2023-03-03T13:40:47;26.88;;;17.83;;
22144;SDS011;11238;48.730;11.566;2023-03-03T13:43:30;29.45;;;19.23;;
22144;SDS011;11238;48.730;11.566;2023-03-03T13:49:01;25.88;;;17.45;;
22144;SDS011;11238;48.730;11.566;2023-03-03T13:51:35;29.73;;;19.13;;
22144;SDS011;11238;48.730;11.566;2023-03-03T13:54:28;26.25;;;17.85;;
22144;SDS011;11238;48.730;11.566;2023-03-03T14:08:17;29.13;;;17.38;;
22144;SDS011;11238;48.730;11.566;2023-03-03T14:13:54;28.25;;;16.90;;
22144;SDS011;11238;48.730;11.566;2023-03-03T14:16:46;28.13;;;17.48;;
22144;SDS011;11238;48.730;11.566;2023-03-03T14:22:51;32.95;;;20.23;;
22144;SDS011;11238;48.730;11.566;2023-03-03T14:25:18;31.52;;;20.55;;
22144;SDS011;11238;48.730;11.566;2023-03-03T14:33:04;31.55;;;18.48;;
22144;SDS011;11238;48.730;11.566;2023-03-03T14:35:40;32.92;;;19.25;;
22144;SDS011;11238;48.730;11.566;2023-03-03T14:38:11;27.98;;;18.77;;
22144;SDS011;11238;48.730;11.566;2023-03-03T14:40:39;27.00;;;18.58;;
22144;SDS011;11238;48.730;11.566;2023-03-03T14:46:17;27.77;;;19.23;;
22144;SDS011;11238;48.730;11.566;2023-03-03T14:48:51;31.75;;;19.67;;
22144;SDS011;11238;48.730;11.566;2023-03-03T14:51:42;30.65;;;19.52;;
22144;SDS011;11238;48.730;11.566;2023-03-03T14:54:14;30.77;;;19.42;;
22144;SDS011;11238;48.730;11.566;2023-03-03T15:00:01;26.58;;;18.67;;
22144;SDS011;11238;48.730;11.566;2023-03-03T15:05:22;29.65;;;19.55;;
22144;SDS011;11238;48.730;11.566;2023-03-03T15:07:56;29.67;;;18.77;;
22144;SDS011;11238;48.730;11.566;2023-03-03T15:10:33;26.52;;;18.73;;
22144;SDS011;11238;48.730;11.566;2023-03-03T15:15:51;29.42;;;19.15;;
22144;SDS011;11238;48.730;11.566;2023-03-03T15:18:24;32.22;;;20.25;;
22144;SDS011;11238;48.730;11.566;2023-03-03T15:26:23;31.70;;;20.17;;
22144;SDS011;11238;48.730;11.566;2023-03-03T15:28:54;32.97;;;20.88;;
22144;SDS011;11238;48.730;11.566;2023-03-03T15:34:38;35.47;;;21.38;;
22144;SDS011;11238;48.730;11.566;2023-03-03T15:37:10;31.55;;;21.23;;
22144;SDS011;11238;48.730;11.566;2023-03-03T15:42:32;30.02;;;21.17;;
22144;SDS011;11238;48.730;11.566;2023-03-03T15:56:08;40.15;;;23.10;;
22144;SDS011;11238;48.730;11.566;2023-03-03T15:59:05;36.13;;;21.70;;
22144;SDS011;11238;48.730;11.566;2023-03-03T16:05:00;33.90;;;21.70;;
22144;SDS011;11238;48.730;11.566;2023-03-03T16:07:58;34.05;;;21.75;;
22144;SDS011;11238;48.730;11.566;2023-03-03T16:13:31;35.08;;;21.88;;
22144;SDS011;11238;48.730;11.566;2023-03-03T16:17:01;35.13;;;21.67;;
22144;SDS011;11238;48.730;11.566;2023-03-03T16:22:39;32.80;;;21.38;;
22144;SDS011;11238;48.730;11.566;2023-03-03T16:28:05;32.45;;;20.90;;
22144;SDS011;11238;48.730;11.566;2023-03-03T16:33:32;34.97;;;20.95;;
22144;SDS011;11238;48.730;11.566;2023-03-03T16:36:21;38.42;;;21.52;;
22144;SDS011;11238;48.730;11.566;2023-03-03T16:38:59;36.20;;;21.95;;
22144;SDS011;11238;48.730;11.566;2023-03-03T16:44:38;34.47;;;20.02;;
22144;SDS011;11238;48.730;11.566;2023-03-03T16:47:18;32.75;;;20.63;;
22144;SDS011;11238;48.730;11.566;2023-03-03T16:50:22;33.40;;;21.52;;
22144;SDS011;11238;48.730;11.566;2023-03-03T16:56:09;31.67;;;20.70;;
22144;SDS011;11238;48.730;11.566;2023-03-03T16:58:51;35.88;;;20.83;;
22144;SDS011;11238;48.730;11.566;2023-03-03T17:04:15;33.97;;;20.83;;
22144;SDS011;11238;48.730;11.566;2023-03-03T17:07:02;34.63;;;19.90;;
22144;SDS011;11238;48.730;11.566;2023-03-03T17:09:40;38.80;;;20.40;;
22144;SDS011;11238;48.730;11.566;2023-03-03T17:20:45;31.73;;;20.20;;
22144;SDS011;11238;48.730;11.566;2023-03-03T17:26:17;33.47;;;20.20;;
22144;SDS011;11238;48.730;11.566;2023-03-03T17:34:17;34.97;;;19.90;;
22144;SDS011;11238;48.730;11.566;2023-03-03T17:45:37;43.10;;;20.80;;
22144;SDS011;11238;48.730;11.566;2023-03-03T17:48:09;36.05;;;20.98;;
22144;SDS011;11238;48.730;11.566;2023-03-03T17:56:29;37.30;;;20.15;;
22144;SDS011;11238;48.730;11.566;2023-03-03T18:05:00;35.10;;;20.10;;
22144;SDS011;11238;48.730;11.566;2023-03-03T18:08:05;35.50;;;20.48;;
22144;SDS011;11238;48.730;11.566;2023-03-03T18:10:52;33.83;;;19.77;;
22144;SDS011;11238;48.730;11.566;2023-03-03T18:18:51;56.80;;;29.45;;
22144;SDS011;11238;48.730;11.566;2023-03-03T18:21:36;51.80;;;25.33;;
